EVA683 CYYZ-KORD
Flight info
| Callsign | EVA683 |
|---|---|
| Flight time | N/A |
| Altitude | 36000 |
| Route | GOPUP4 HOCKE DCT FNT WYNDE3 |
| Aircraft | B77L/H-SDE1E2E3FGHIJ2J3J4J5M1RWXY/LB1D1 |
Departure
| Time | 2026-05-06 20:11 |
|---|---|
| Airport | Toronto Pearson International Airport (CYYZ) |
Arrival
| Time | N/A |
|---|---|
| Airport | Chicago O'Hare International Airport (KORD) |
| Time | Latitude | Longitude | Altitude | Speed | Heading |
|---|---|---|---|---|---|
| 2026-05-06 19:44 | 43.67897 | -79.63192 | 556 ft | 0 kts | 316° |
| 2026-05-06 19:56 | 43.67896 | -79.63191 | 556 ft | 1 kts | 316° |
| 2026-05-06 19:56 | 43.67885 | -79.63177 | 556 ft | 2 kts | 329° |
| 2026-05-06 19:57 | 43.67871 | -79.63168 | 556 ft | 2 kts | 342° |
| 2026-05-06 19:57 | 43.67857 | -79.63164 | 556 ft | 2 kts | 355° |
| 2026-05-06 19:57 | 43.67841 | -79.63164 | 556 ft | 2 kts | 7° |
| 2026-05-06 19:57 | 43.67827 | -79.63168 | 556 ft | 2 kts | 19° |
| 2026-05-06 19:58 | 43.67813 | -79.63177 | 556 ft | 2 kts | 32° |
| 2026-05-06 19:58 | 43.67802 | -79.63189 | 556 ft | 1 kts | 44° |
| 2026-05-06 19:58 | 43.67798 | -79.63193 | 556 ft | 0 kts | 47° |
| 2026-05-06 20:03 | 43.67800 | -79.63191 | 556 ft | 1 kts | 47° |
| 2026-05-06 20:03 | 43.67815 | -79.63168 | 556 ft | 5 kts | 47° |
| 2026-05-06 20:04 | 43.67847 | -79.63120 | 556 ft | 8 kts | 47° |
| 2026-05-06 20:04 | 43.67895 | -79.63052 | 556 ft | 11 kts | 45° |
| 2026-05-06 20:04 | 43.67956 | -79.62968 | 556 ft | 12 kts | 32° |
| 2026-05-06 20:04 | 43.68036 | -79.63017 | 556 ft | 14 kts | 317° |
| 2026-05-06 20:05 | 43.68117 | -79.63119 | 556 ft | 16 kts | 317° |
| 2026-05-06 20:05 | 43.68205 | -79.63234 | 556 ft | 17 kts | 316° |
| 2026-05-06 20:05 | 43.68296 | -79.63354 | 558 ft | 18 kts | 316° |
| 2026-05-06 20:05 | 43.68394 | -79.63481 | 559 ft | 20 kts | 316° |
| 2026-05-06 20:06 | 43.68500 | -79.63618 | 559 ft | 21 kts | 314° |
| 2026-05-06 20:06 | 43.68608 | -79.63763 | 559 ft | 22 kts | 316° |
| 2026-05-06 20:06 | 43.68670 | -79.63953 | 559 ft | 23 kts | 271° |
| 2026-05-06 20:06 | 43.68664 | -79.64176 | 559 ft | 23 kts | 248° |
| 2026-05-06 20:07 | 43.68552 | -79.64352 | 559 ft | 24 kts | 226° |
| 2026-05-06 20:07 | 43.68433 | -79.64526 | 557 ft | 26 kts | 226° |
| 2026-05-06 20:07 | 43.68303 | -79.64713 | 555 ft | 27 kts | 226° |
| 2026-05-06 20:07 | 43.68172 | -79.64904 | 555 ft | 27 kts | 226° |
| 2026-05-06 20:08 | 43.68042 | -79.65094 | 555 ft | 26 kts | 226° |
| 2026-05-06 20:08 | 43.67915 | -79.65279 | 555 ft | 26 kts | 226° |
| 2026-05-06 20:08 | 43.67788 | -79.65462 | 555 ft | 26 kts | 226° |
| 2026-05-06 20:08 | 43.67665 | -79.65640 | 555 ft | 25 kts | 226° |
| 2026-05-06 20:09 | 43.67542 | -79.65818 | 555 ft | 25 kts | 226° |
| 2026-05-06 20:09 | 43.67422 | -79.65991 | 555 ft | 24 kts | 226° |
| 2026-05-06 20:09 | 43.67305 | -79.66165 | 555 ft | 24 kts | 232° |
| 2026-05-06 20:09 | 43.67354 | -79.66316 | 555 ft | 19 kts | 339° |
| 2026-05-06 20:10 | 43.67477 | -79.66316 | 555 ft | 17 kts | 41° |
| 2026-05-06 20:10 | 43.67582 | -79.66163 | 555 ft | 32 kts | 46° |
| 2026-05-06 20:10 | 43.67916 | -79.65687 | 555 ft | 103 kts | 46° |
| 2026-05-06 20:10 | 43.68567 | -79.64753 | 561 ft | 163 kts | 42° |
| 2026-05-06 20:11 | 43.69384 | -79.63549 | 1074 ft | 174 kts | 45° |
| 2026-05-06 20:11 | 43.70262 | -79.62380 | 1800 ft | 180 kts | 35° |
| 2026-05-06 20:11 | 43.71233 | -79.61333 | 2658 ft | 181 kts | 33° |
| 2026-05-06 20:11 | 43.72249 | -79.60271 | 3158 ft | 191 kts | 33° |
| 2026-05-06 20:12 | 43.73376 | -79.59099 | 3479 ft | 210 kts | 33° |
| 2026-05-06 20:12 | 43.74588 | -79.57835 | 3891 ft | 227 kts | 33° |
| 2026-05-06 20:12 | 43.75891 | -79.56473 | 4312 ft | 244 kts | 33° |
| 2026-05-06 20:12 | 43.77295 | -79.55005 | 4722 ft | 263 kts | 34° |
| 2026-05-06 20:13 | 43.78763 | -79.53468 | 5444 ft | 268 kts | 34° |
| 2026-05-06 20:13 | 43.80348 | -79.52101 | 6122 ft | 270 kts | 16° |
| 2026-05-06 20:13 | 43.82185 | -79.51788 | 6751 ft | 269 kts | 348° |
| 2026-05-06 20:13 | 43.83905 | -79.52664 | 7382 ft | 267 kts | 321° |
| 2026-05-06 20:14 | 43.85144 | -79.54531 | 8088 ft | 263 kts | 295° |
| 2026-05-06 20:14 | 43.85626 | -79.56920 | 8830 ft | 259 kts | 269° |
| 2026-05-06 20:14 | 43.85333 | -79.59334 | 9560 ft | 258 kts | 252° |
| 2026-05-06 20:14 | 43.84750 | -79.61652 | 10311 ft | 258 kts | 250° |
| 2026-05-06 20:15 | 43.84124 | -79.64054 | 10697 ft | 272 kts | 250° |
| 2026-05-06 20:15 | 43.83505 | -79.66608 | 11035 ft | 288 kts | 255° |
| 2026-05-06 20:15 | 43.83042 | -79.69366 | 11452 ft | 303 kts | 257° |
| 2026-05-06 20:15 | 43.82583 | -79.72269 | 11917 ft | 316 kts | 257° |
| 2026-05-06 20:16 | 43.82096 | -79.75319 | 12393 ft | 330 kts | 257° |
| 2026-05-06 20:16 | 43.81589 | -79.78457 | 12938 ft | 343 kts | 257° |
| 2026-05-06 20:16 | 43.81067 | -79.81681 | 13757 ft | 348 kts | 257° |
| 2026-05-06 20:16 | 43.80536 | -79.84956 | 14766 ft | 350 kts | 257° |
| 2026-05-06 20:17 | 43.80002 | -79.88239 | 15742 ft | 353 kts | 256° |
| 2026-05-06 20:17 | 43.79476 | -79.91521 | 16670 ft | 357 kts | 256° |
| 2026-05-06 20:17 | 43.78943 | -79.94857 | 17657 ft | 358 kts | 256° |
| 2026-05-06 20:17 | 43.78401 | -79.98241 | 18567 ft | 362 kts | 256° |
| 2026-05-06 20:18 | 43.77855 | -80.01630 | 19413 ft | 366 kts | 256° |
| 2026-05-06 20:18 | 43.77305 | -80.05045 | 20278 ft | 370 kts | 256° |
| 2026-05-06 20:18 | 43.76743 | -80.08520 | 21069 ft | 374 kts | 256° |
| 2026-05-06 20:18 | 43.76174 | -80.12028 | 21819 ft | 379 kts | 256° |
| 2026-05-06 20:19 | 43.75601 | -80.15563 | 22592 ft | 383 kts | 256° |
| 2026-05-06 20:19 | 43.75014 | -80.19173 | 23398 ft | 385 kts | 256° |
| 2026-05-06 20:19 | 43.74426 | -80.22778 | 24190 ft | 387 kts | 256° |
| 2026-05-06 20:19 | 43.73834 | -80.26402 | 24896 ft | 391 kts | 256° |
| 2026-05-06 20:20 | 43.73382 | -80.30140 | 25528 ft | 399 kts | 262° |
| 2026-05-06 20:20 | 43.73291 | -80.33939 | 26299 ft | 403 kts | 267° |
| 2026-05-06 20:20 | 43.73304 | -80.37814 | 27138 ft | 404 kts | 267° |
| 2026-05-06 20:20 | 43.73318 | -80.41653 | 27840 ft | 407 kts | 267° |
| 2026-05-06 20:21 | 43.73328 | -80.45567 | 28522 ft | 411 kts | 267° |
| 2026-05-06 20:21 | 43.73336 | -80.49559 | 29181 ft | 415 kts | 267° |
| 2026-05-06 20:21 | 43.73342 | -80.53577 | 29963 ft | 417 kts | 268° |
| 2026-05-06 20:21 | 43.73347 | -80.57553 | 30817 ft | 415 kts | 268° |
| 2026-05-06 20:22 | 43.73350 | -80.61482 | 31671 ft | 410 kts | 268° |
| 2026-05-06 20:22 | 43.73351 | -80.65372 | 32354 ft | 406 kts | 267° |
| 2026-05-06 20:22 | 43.73349 | -80.69239 | 32904 ft | 404 kts | 267° |
| 2026-05-06 20:22 | 43.73347 | -80.73132 | 33456 ft | 401 kts | 268° |
| 2026-05-06 20:23 | 43.73343 | -80.77007 | 33953 ft | 401 kts | 267° |
| 2026-05-06 20:23 | 43.73337 | -80.80924 | 34488 ft | 401 kts | 267° |
| 2026-05-06 20:23 | 43.73330 | -80.84827 | 35012 ft | 401 kts | 268° |
| 2026-05-06 20:23 | 43.73322 | -80.88662 | 35569 ft | 399 kts | 267° |
| 2026-05-06 20:24 | 43.73312 | -80.92599 | 35857 ft | 403 kts | 267° |
| 2026-05-06 20:24 | 43.73301 | -80.96458 | 35896 ft | 402 kts | 267° |
| 2026-05-06 20:24 | 43.73277 | -81.04153 | 35902 ft | 399 kts | 267° |
| 2026-05-06 20:25 | 43.73246 | -81.11828 | 35905 ft | 399 kts | 267° |
| 2026-05-06 20:25 | 43.73210 | -81.19472 | 35906 ft | 398 kts | 267° |
| 2026-05-06 20:26 | 43.73170 | -81.27104 | 35902 ft | 400 kts | 267° |
| 2026-05-06 20:26 | 43.73124 | -81.34758 | 35903 ft | 397 kts | 267° |
| 2026-05-06 20:27 | 43.73074 | -81.42371 | 35904 ft | 397 kts | 267° |
| 2026-05-06 20:27 | 43.72964 | -81.50041 | 35902 ft | 397 kts | 263° |
| 2026-05-06 20:28 | 43.71843 | -81.57438 | 35905 ft | 396 kts | 251° |
| 2026-05-06 20:28 | 43.69464 | -81.64308 | 35910 ft | 397 kts | 244° |
| 2026-05-06 20:29 | 43.66774 | -81.70978 | 35929 ft | 398 kts | 243° |
| 2026-05-06 20:29 | 43.64068 | -81.77635 | 35936 ft | 397 kts | 243° |
| 2026-05-06 20:30 | 43.60009 | -81.87565 | 35936 ft | 395 kts | 243° |
| 2026-05-06 20:31 | 43.57309 | -81.94142 | 35936 ft | 396 kts | 243° |
| 2026-05-06 20:31 | 43.54602 | -82.00719 | 35937 ft | 395 kts | 243° |
| 2026-05-06 20:32 | 43.51905 | -82.07256 | 35932 ft | 393 kts | 243° |
| 2026-05-06 20:32 | 43.49188 | -82.13826 | 35934 ft | 393 kts | 243° |
| 2026-05-06 20:33 | 43.46524 | -82.20377 | 35932 ft | 395 kts | 244° |
| 2026-05-06 20:33 | 43.43892 | -82.27010 | 35928 ft | 392 kts | 244° |
| 2026-05-06 20:34 | 43.41274 | -82.33582 | 35924 ft | 393 kts | 244° |
| 2026-05-06 20:34 | 43.38656 | -82.40136 | 35930 ft | 392 kts | 244° |
| 2026-05-06 20:35 | 43.36037 | -82.46668 | 35921 ft | 392 kts | 244° |
| 2026-05-06 20:35 | 43.33407 | -82.53216 | 35919 ft | 391 kts | 244° |
| 2026-05-06 20:36 | 43.30764 | -82.59779 | 35906 ft | 392 kts | 244° |
| 2026-05-06 20:36 | 43.28127 | -82.66310 | 35920 ft | 391 kts | 243° |
| 2026-05-06 20:37 | 43.25670 | -82.72922 | 35915 ft | 391 kts | 250° |
| 2026-05-06 20:37 | 43.23733 | -82.79855 | 35917 ft | 389 kts | 250° |
| 2026-05-06 20:38 | 43.21800 | -82.86773 | 35911 ft | 391 kts | 251° |
| 2026-05-06 20:38 | 43.19861 | -82.93684 | 35910 ft | 389 kts | 250° |
| 2026-05-06 20:39 | 43.17912 | -83.00598 | 35909 ft | 391 kts | 250° |
| 2026-05-06 20:39 | 43.15950 | -83.07539 | 35911 ft | 390 kts | 250° |
| 2026-05-06 20:40 | 43.13994 | -83.14441 | 35909 ft | 389 kts | 250° |
| 2026-05-06 20:40 | 43.12037 | -83.21320 | 35908 ft | 387 kts | 250° |
| 2026-05-06 20:41 | 43.10082 | -83.28178 | 35911 ft | 389 kts | 250° |
| 2026-05-06 20:41 | 43.08119 | -83.35046 | 35907 ft | 389 kts | 250° |
| 2026-05-06 20:42 | 43.06149 | -83.41916 | 35910 ft | 388 kts | 250° |
| 2026-05-06 20:42 | 43.04182 | -83.48757 | 35916 ft | 388 kts | 251° |
| 2026-05-06 20:43 | 43.02218 | -83.55571 | 35922 ft | 387 kts | 250° |
| 2026-05-06 20:43 | 43.00235 | -83.62435 | 35925 ft | 387 kts | 250° |
| 2026-05-06 20:44 | 42.98267 | -83.69222 | 35947 ft | 386 kts | 250° |
| 2026-05-06 20:44 | 42.96570 | -83.76171 | 35939 ft | 385 kts | 258° |
| 2026-05-06 20:45 | 42.95815 | -83.83373 | 35937 ft | 384 kts | 261° |
| 2026-05-06 20:45 | 42.95139 | -83.90599 | 35940 ft | 385 kts | 261° |
| 2026-05-06 20:46 | 42.94448 | -83.97835 | 35946 ft | 383 kts | 262° |
| 2026-05-06 20:46 | 42.93749 | -84.05045 | 35940 ft | 383 kts | 262° |
| 2026-05-06 20:47 | 42.93043 | -84.12261 | 35939 ft | 387 kts | 262° |
| 2026-05-06 20:47 | 42.92326 | -84.19535 | 35947 ft | 386 kts | 262° |
| 2026-05-06 20:48 | 42.91610 | -84.26743 | 35941 ft | 385 kts | 261° |
| 2026-05-06 20:48 | 42.90884 | -84.34006 | 35931 ft | 386 kts | 261° |
| 2026-05-06 20:49 | 42.90157 | -84.41223 | 35925 ft | 386 kts | 261° |
| 2026-05-06 20:49 | 42.89428 | -84.48420 | 35936 ft | 384 kts | 261° |
| 2026-05-06 20:50 | 42.88692 | -84.55635 | 35934 ft | 384 kts | 261° |
| 2026-05-06 20:50 | 42.87955 | -84.62827 | 35944 ft | 387 kts | 262° |
| 2026-05-06 20:51 | 42.87207 | -84.70083 | 35954 ft | 386 kts | 261° |
| 2026-05-06 20:51 | 42.86453 | -84.77345 | 35951 ft | 386 kts | 261° |
| 2026-05-06 20:52 | 42.85696 | -84.84598 | 35955 ft | 386 kts | 261° |
| 2026-05-06 20:52 | 42.84937 | -84.91818 | 35952 ft | 385 kts | 260° |
| 2026-05-06 20:53 | 42.84177 | -84.99000 | 35942 ft | 385 kts | 260° |
| 2026-05-06 20:53 | 42.83408 | -85.06203 | 35944 ft | 385 kts | 261° |
| 2026-05-06 20:54 | 42.82641 | -85.13367 | 35953 ft | 385 kts | 261° |
| 2026-05-06 20:54 | 42.81868 | -85.20522 | 35948 ft | 382 kts | 261° |
| 2026-05-06 20:55 | 42.81091 | -85.27681 | 35950 ft | 385 kts | 261° |
| 2026-05-06 20:55 | 42.80304 | -85.34890 | 35957 ft | 385 kts | 261° |
| 2026-05-06 20:56 | 42.79515 | -85.42075 | 35961 ft | 382 kts | 261° |
| 2026-05-06 20:56 | 42.78716 | -85.49210 | 35953 ft | 385 kts | 259° |
| 2026-05-06 20:57 | 42.77502 | -85.56271 | 35951 ft | 383 kts | 256° |
| 2026-05-06 20:57 | 42.76235 | -85.63333 | 35948 ft | 384 kts | 257° |
| 2026-05-06 20:58 | 42.74966 | -85.70387 | 35956 ft | 384 kts | 256° |
| 2026-05-06 20:58 | 42.73685 | -85.77481 | 35952 ft | 383 kts | 256° |
| 2026-05-06 20:59 | 42.72416 | -85.84482 | 35956 ft | 383 kts | 256° |
| 2026-05-06 20:59 | 42.71132 | -85.91539 | 35965 ft | 383 kts | 256° |
| 2026-05-06 21:00 | 42.69844 | -85.98592 | 35968 ft | 393 kts | 256° |
| 2026-05-06 21:00 | 42.68479 | -86.06038 | 35953 ft | 412 kts | 256° |
| 2026-05-06 21:01 | 42.67077 | -86.13655 | 35963 ft | 419 kts | 256° |
| 2026-05-06 21:01 | 42.65665 | -86.21292 | 35955 ft | 419 kts | 256° |
| 2026-05-06 21:02 | 42.64243 | -86.28953 | 35938 ft | 418 kts | 256° |
| 2026-05-06 21:02 | 42.62817 | -86.36611 | 35950 ft | 419 kts | 256° |
| 2026-05-06 21:03 | 42.61385 | -86.44270 | 35952 ft | 419 kts | 256° |
| 2026-05-06 21:03 | 42.59954 | -86.51894 | 35957 ft | 416 kts | 256° |
| 2026-05-06 21:04 | 42.58522 | -86.59493 | 35951 ft | 417 kts | 256° |